sensor_id;sensor_type;location;lat;lon;timestamp;pressure;altitude;pressure_sealevel;temperature;humidity
63006;BME280;53704;52.532;6.426;2024-01-11T00:00:22;103390.00;;;-7.47;100.00
63006;BME280;53704;52.532;6.426;2024-01-11T00:02:47;103387.41;;;-7.42;100.00
63006;BME280;53704;52.532;6.426;2024-01-11T00:05:13;103378.75;;;-7.34;100.00
63006;BME280;53704;52.532;6.426;2024-01-11T00:07:38;103372.63;;;-7.39;100.00
63006;BME280;53704;52.532;6.426;2024-01-11T00:10:04;103382.22;;;-7.38;100.00
63006;BME280;53704;52.532;6.426;2024-01-11T00:12:29;103380.41;;;-7.45;100.00
63006;BME280;53704;52.532;6.426;2024-01-11T00:14:55;103376.06;;;-7.46;100.00
63006;BME280;53704;52.532;6.426;2024-01-11T00:17:21;103371.72;;;-7.41;100.00
63006;BME280;53704;52.532;6.426;2024-01-11T00:19:46;103376.94;;;-7.42;100.00
63006;BME280;53704;52.532;6.426;2024-01-11T00:22:11;103381.34;;;-7.41;100.00
63006;BME280;53704;52.532;6.426;2024-01-11T00:24:37;103379.50;;;-7.50;100.00
63006;BME280;53704;52.532;6.426;2024-01-11T00:27:02;103385.56;;;-7.53;100.00
63006;BME280;53704;52.532;6.426;2024-01-11T00:29:27;103371.72;;;-7.41;100.00
63006;BME280;53704;52.532;6.426;2024-01-11T00:31:54;103373.50;;;-7.40;100.00
63006;BME280;53704;52.532;6.426;2024-01-11T00:34:19;103377.00;;;-7.38;100.00
63006;BME280;53704;52.532;6.426;2024-01-11T00:36:46;103371.75;;;-7.38;100.00
63006;BME280;53704;52.532;6.426;2024-01-11T00:39:12;103370.03;;;-7.36;100.00
63006;BME280;53704;52.532;6.426;2024-01-11T00:41:37;103370.81;;;-7.48;100.00
63006;BME280;53704;52.532;6.426;2024-01-11T00:44:02;103373.31;;;-7.58;100.00
63006;BME280;53704;52.532;6.426;2024-01-11T00:46:28;103371.50;;;-7.63;100.00
63006;BME280;53704;52.532;6.426;2024-01-11T00:48:53;103369.00;;;-7.53;100.00
63006;BME280;53704;52.532;6.426;2024-01-11T00:51:19;103368.16;;;-7.51;100.00
63006;BME280;53704;52.532;6.426;2024-01-11T00:53:45;103364.69;;;-7.45;100.00
63006;BME280;53704;52.532;6.426;2024-01-11T00:56:20;103375.13;;;-7.50;100.00
63006;BME280;53704;52.532;6.426;2024-01-11T00:58:46;103373.28;;;-7.60;100.00
63006;BME280;53704;52.532;6.426;2024-01-11T01:01:11;103372.38;;;-7.67;100.00
63006;BME280;53704;52.532;6.426;2024-01-11T01:03:37;103381.13;;;-7.61;100.00
63006;BME280;53704;52.532;6.426;2024-01-11T01:06:03;103388.84;;;-7.72;100.00
63006;BME280;53704;52.532;6.426;2024-01-11T01:08:29;103393.16;;;-7.77;100.00
63006;BME280;53704;52.532;6.426;2024-01-11T01:10:54;103393.97;;;-7.82;100.00
63006;BME280;53704;52.532;6.426;2024-01-11T01:13:20;103392.44;;;-7.63;100.00
63006;BME280;53704;52.532;6.426;2024-01-11T01:15:45;103388.13;;;-7.57;100.00
63006;BME280;53704;52.532;6.426;2024-01-11T01:18:11;103401.25;;;-7.54;100.00
63006;BME280;53704;52.532;6.426;2024-01-11T01:20:36;103389.03;;;-7.55;100.00
63006;BME280;53704;52.532;6.426;2024-01-11T01:23:02;103389.81;;;-7.64;100.00
63006;BME280;53704;52.532;6.426;2024-01-11T01:25:28;103387.25;;;-7.59;100.00
63006;BME280;53704;52.532;6.426;2024-01-11T01:27:53;103386.31;;;-7.65;100.00
63006;BME280;53704;52.532;6.426;2024-01-11T01:30:19;103393.03;;;-7.88;100.00
63006;BME280;53704;52.532;6.426;2024-01-11T01:32:45;103410.41;;;-7.93;100.00
63006;BME280;53704;52.532;6.426;2024-01-11T01:35:10;103414.09;;;-7.76;100.00
63006;BME280;53704;52.532;6.426;2024-01-11T01:37:36;103407.97;;;-7.81;100.00
63006;BME280;53704;52.532;6.426;2024-01-11T01:40:01;103408.88;;;-7.76;100.00
63006;BME280;53704;52.532;6.426;2024-01-11T01:42:27;103418.38;;;-7.84;100.00
63006;BME280;53704;52.532;6.426;2024-01-11T01:44:52;103410.41;;;-7.93;100.00
63006;BME280;53704;52.532;6.426;2024-01-11T01:47:18;103408.81;;;-7.80;100.00
63006;BME280;53704;52.532;6.426;2024-01-11T01:49:44;103405.34;;;-7.81;100.00
63006;BME280;53704;52.532;6.426;2024-01-11T01:52:10;103395.88;;;-7.70;100.00
63006;BME280;53704;52.532;6.426;2024-01-11T01:54:39;103395.94;;;-7.65;100.00
63006;BME280;53704;52.532;6.426;2024-01-11T01:57:06;103393.28;;;-7.67;100.00
63006;BME280;53704;52.532;6.426;2024-01-11T01:59:32;103391.59;;;-7.60;100.00
63006;BME280;53704;52.532;6.426;2024-01-11T02:01:58;103391.69;;;-7.52;100.00
63006;BME280;53704;52.532;6.426;2024-01-11T02:04:23;103396.97;;;-7.49;100.00
63006;BME280;53704;52.532;6.426;2024-01-11T02:06:50;103401.56;;;-8.05;100.00
63006;BME280;53704;52.532;6.426;2024-01-11T02:09:17;103406.16;;;-7.85;100.00
63006;BME280;53704;52.532;6.426;2024-01-11T02:11:44;103400.25;;;-7.66;100.00
63006;BME280;53704;52.532;6.426;2024-01-11T02:14:10;103400.41;;;-7.52;100.00
63006;BME280;53704;52.532;6.426;2024-01-11T02:16:36;103402.69;;;-7.84;100.00
63006;BME280;53704;52.532;6.426;2024-01-11T02:19:02;103405.59;;;-7.56;100.00
63006;BME280;53704;52.532;6.426;2024-01-11T02:21:28;103401.16;;;-7.64;100.00
63006;BME280;53704;52.532;6.426;2024-01-11T02:24:06;103382.16;;;-7.46;100.00
63006;BME280;53704;52.532;6.426;2024-01-11T02:26:32;103388.19;;;-7.51;100.00
63006;BME280;53704;52.532;6.426;2024-01-11T02:28:58;103390.16;;;-8.10;100.00
63006;BME280;53704;52.532;6.426;2024-01-11T02:31:24;103404.09;;;-8.12;100.00
63006;BME280;53704;52.532;6.426;2024-01-11T02:33:49;103409.44;;;-8.02;100.00
63006;BME280;53704;52.532;6.426;2024-01-11T02:36:15;103397.25;;;-8.01;100.00
63006;BME280;53704;52.532;6.426;2024-01-11T02:38:42;103400.63;;;-8.08;100.00
63006;BME280;53704;52.532;6.426;2024-01-11T02:41:08;103404.09;;;-8.11;100.00
63006;BME280;53704;52.532;6.426;2024-01-11T02:43:34;103397.19;;;-8.06;100.00
63006;BME280;53704;52.532;6.426;2024-01-11T02:46:03;103399.72;;;-8.12;100.00
63006;BME280;53704;52.532;6.426;2024-01-11T02:48:29;103401.56;;;-8.05;100.00
63006;BME280;53704;52.532;6.426;2024-01-11T02:50:56;103404.28;;;-7.94;100.00
63006;BME280;53704;52.532;6.426;2024-01-11T02:53:21;103414.50;;;-8.15;100.00
63006;BME280;53704;52.532;6.426;2024-01-11T02:55:47;103416.16;;;-8.19;100.00
63006;BME280;53704;52.532;6.426;2024-01-11T02:58:12;103414.41;;;-8.23;100.00
63006;BME280;53704;52.532;6.426;2024-01-11T03:00:38;103410.34;;;-8.00;100.00
63006;BME280;53704;52.532;6.426;2024-01-11T03:03:04;103407.03;;;-7.83;100.00
63006;BME280;53704;52.532;6.426;2024-01-11T03:05:29;103405.81;;;-8.11;100.00
63006;BME280;53704;52.532;6.426;2024-01-11T03:07:54;103414.44;;;-8.20;100.00
63006;BME280;53704;52.532;6.426;2024-01-11T03:10:20;103412.72;;;-8.18;100.00
63006;BME280;53704;52.532;6.426;2024-01-11T03:12:45;103412.34;;;-7.77;100.00
63006;BME280;53704;52.532;6.426;2024-01-11T03:15:11;103401.59;;;-8.00;100.00
63006;BME280;53704;52.532;6.426;2024-01-11T03:17:37;103417.88;;;-8.23;100.00
63006;BME280;53704;52.532;6.426;2024-01-11T03:20:02;103424.66;;;-8.36;100.00
63006;BME280;53704;52.532;6.426;2024-01-11T03:22:29;103424.06;;;-8.16;100.00
63006;BME280;53704;52.532;6.426;2024-01-11T03:24:55;103418.09;;;-8.06;100.00
63006;BME280;53704;52.532;6.426;2024-01-11T03:27:20;103417.59;;;-8.46;100.00
63006;BME280;53704;52.532;6.426;2024-01-11T03:29:46;103419.59;;;-8.25;100.00
63006;BME280;53704;52.532;6.426;2024-01-11T03:32:11;103407.66;;;-8.04;100.00
63006;BME280;53704;52.532;6.426;2024-01-11T03:34:39;103415.44;;;-8.10;100.00
63006;BME280;53704;52.532;6.426;2024-01-11T03:37:04;103415.34;;;-8.16;100.00
63006;BME280;53704;52.532;6.426;2024-01-11T03:39:30;103426.28;;;-8.48;100.00
63006;BME280;53704;52.532;6.426;2024-01-11T03:41:55;103430.59;;;-8.50;100.00
63006;BME280;53704;52.532;6.426;2024-01-11T03:44:21;103436.75;;;-8.45;100.00
63006;BME280;53704;52.532;6.426;2024-01-11T03:46:47;103444.63;;;-8.44;100.00
63006;BME280;53704;52.532;6.426;2024-01-11T03:49:12;103443.84;;;-8.33;100.00
63006;BME280;53704;52.532;6.426;2024-01-11T03:51:38;103441.41;;;-8.23;100.00
63006;BME280;53704;52.532;6.426;2024-01-11T03:54:03;103440.44;;;-8.29;100.00
63006;BME280;53704;52.532;6.426;2024-01-11T03:56:28;103442.38;;;-8.14;100.00
63006;BME280;53704;52.532;6.426;2024-01-11T03:58:54;103446.00;;;-8.06;100.00
63006;BME280;53704;52.532;6.426;2024-01-11T04:01:19;103459.41;;;-8.46;100.00
63006;BME280;53704;52.532;6.426;2024-01-11T04:03:45;103440.22;;;-8.46;100.00
63006;BME280;53704;52.532;6.426;2024-01-11T04:06:19;103445.47;;;-8.42;100.00
63006;BME280;53704;52.532;6.426;2024-01-11T04:08:46;103445.75;;;-8.23;100.00
63006;BME280;53704;52.532;6.426;2024-01-11T04:11:12;103444.63;;;-8.44;100.00
63006;BME280;53704;52.532;6.426;2024-01-11T04:13:37;103453.22;;;-8.51;100.00
63006;BME280;53704;52.532;6.426;2024-01-11T04:16:07;103444.81;;;-8.30;100.00
63006;BME280;53704;52.532;6.426;2024-01-11T04:18:33;103445.88;;;-8.14;100.00
63006;BME280;53704;52.532;6.426;2024-01-11T04:20:58;103446.66;;;-8.21;100.00
63006;BME280;53704;52.532;6.426;2024-01-11T04:23:24;103446.56;;;-8.27;100.00
63006;BME280;53704;52.532;6.426;2024-01-11T04:25:50;103448.94;;;-8.47;100.00
63006;BME280;53704;52.532;6.426;2024-01-11T04:28:16;103450.72;;;-8.40;100.00
63006;BME280;53704;52.532;6.426;2024-01-11T04:30:42;103456.81;;;-8.40;100.00
63006;BME280;53704;52.532;6.426;2024-01-11T04:33:07;103439.69;;;-8.22;100.00
63006;BME280;53704;52.532;6.426;2024-01-11T04:35:33;103436.88;;;-8.36;100.00
63006;BME280;53704;52.532;6.426;2024-01-11T04:37:58;103424.88;;;-8.20;100.00
63006;BME280;53704;52.532;6.426;2024-01-11T04:40:24;103408.50;;;-8.05;100.00
63006;BME280;53704;52.532;6.426;2024-01-11T04:42:49;103401.63;;;-7.98;100.00
63006;BME280;53704;52.532;6.426;2024-01-11T04:45:14;103395.22;;;-8.25;100.00
63006;BME280;53704;52.532;6.426;2024-01-11T04:47:40;103411.03;;;-8.77;100.00
63006;BME280;53704;52.532;6.426;2024-01-11T04:50:06;103412.00;;;-8.70;100.00
63006;BME280;53704;52.532;6.426;2024-01-11T04:52:32;103408.31;;;-8.24;100.00
63006;BME280;53704;52.532;6.426;2024-01-11T04:54:57;103426.75;;;-8.76;100.00
63006;BME280;53704;52.532;6.426;2024-01-11T04:57:23;103417.97;;;-8.78;100.00
63006;BME280;53704;52.532;6.426;2024-01-11T04:59:48;103408.56;;;-8.69;100.00
63006;BME280;53704;52.532;6.426;2024-01-11T05:02:13;103419.06;;;-8.66;100.00
63006;BME280;53704;52.532;6.426;2024-01-11T05:04:39;103415.38;;;-8.76;100.00
63006;BME280;53704;52.532;6.426;2024-01-11T05:07:04;103414.97;;;-8.47;100.00
63006;BME280;53704;52.532;6.426;2024-01-11T05:09:30;103409.97;;;-8.27;100.00
63006;BME280;53704;52.532;6.426;2024-01-11T05:11:55;103406.28;;;-8.45;100.00
63006;BME280;53704;52.532;6.426;2024-01-11T05:14:20;103407.78;;;-8.62;100.00
63006;BME280;53704;52.532;6.426;2024-01-11T05:16:46;103421.44;;;-8.80;100.00
63006;BME280;53704;52.532;6.426;2024-01-11T05:19:11;103428.31;;;-8.84;100.00
63006;BME280;53704;52.532;6.426;2024-01-11T05:21:37;103425.72;;;-8.84;100.00
63006;BME280;53704;52.532;6.426;2024-01-11T05:24:02;103434.31;;;-8.91;100.00
63006;BME280;53704;52.532;6.426;2024-01-11T05:26:28;103444.59;;;-9.00;100.00
63006;BME280;53704;52.532;6.426;2024-01-11T05:28:53;103447.53;;;-8.82;100.00
63006;BME280;53704;52.532;6.426;2024-01-11T05:31:18;103441.47;;;-8.78;100.00
63006;BME280;53704;52.532;6.426;2024-01-11T05:33:44;103456.00;;;-8.95;100.00
63006;BME280;53704;52.532;6.426;2024-01-11T05:36:11;103468.97;;;-9.00;100.00
63006;BME280;53704;52.532;6.426;2024-01-11T05:38:38;103472.56;;;-8.93;100.00
63006;BME280;53704;52.532;6.426;2024-01-11T05:41:04;103476.94;;;-8.92;100.00
63006;BME280;53704;52.532;6.426;2024-01-11T05:43:29;103478.91;;;-8.79;100.00
63006;BME280;53704;52.532;6.426;2024-01-11T05:45:54;103484.25;;;-8.73;100.00
63006;BME280;53704;52.532;6.426;2024-01-11T05:48:20;103492.13;;;-8.69;100.00
63006;BME280;53704;52.532;6.426;2024-01-11T05:50:45;103498.19;;;-8.70;100.00
63006;BME280;53704;52.532;6.426;2024-01-11T05:53:11;103516.44;;;-8.72;100.00
63006;BME280;53704;52.532;6.426;2024-01-11T05:55:37;103521.69;;;-8.70;100.00
63006;BME280;53704;52.532;6.426;2024-01-11T05:58:03;103512.34;;;-8.56;100.00
63006;BME280;53704;52.532;6.426;2024-01-11T06:00:29;103510.59;;;-8.57;100.00
63006;BME280;53704;52.532;6.426;2024-01-11T06:02:54;103509.69;;;-8.59;100.00
63006;BME280;53704;52.532;6.426;2024-01-11T06:05:20;103521.97;;;-8.53;100.00
63006;BME280;53704;52.532;6.426;2024-01-11T06:07:45;103515.03;;;-8.51;100.00
63006;BME280;53704;52.532;6.426;2024-01-11T06:10:11;103515.00;;;-8.53;100.00
63006;BME280;53704;52.532;6.426;2024-01-11T06:12:36;103511.66;;;-8.46;100.00
63006;BME280;53704;52.532;6.426;2024-01-11T06:15:02;103511.63;;;-8.47;100.00
63006;BME280;53704;52.532;6.426;2024-01-11T06:17:28;103504.63;;;-8.50;100.00
63006;BME280;53704;52.532;6.426;2024-01-11T06:19:53;103498.72;;;-8.33;100.00
63006;BME280;53704;52.532;6.426;2024-01-11T06:22:19;103484.41;;;-7.99;100.00
63006;BME280;53704;52.532;6.426;2024-01-11T06:24:44;103469.59;;;-8.02;100.00
63006;BME280;53704;52.532;6.426;2024-01-11T06:27:10;103484.72;;;-8.39;100.00
63006;BME280;53704;52.532;6.426;2024-01-11T06:29:35;103482.66;;;-8.02;100.00
63006;BME280;53704;52.532;6.426;2024-01-11T06:32:01;103478.81;;;-8.27;100.00
63006;BME280;53704;52.532;6.426;2024-01-11T06:34:27;103479.53;;;-8.36;100.00
63006;BME280;53704;52.532;6.426;2024-01-11T06:36:54;103480.38;;;-8.38;100.00
63006;BME280;53704;52.532;6.426;2024-01-11T06:39:19;103473.81;;;-8.10;100.00
63006;BME280;53704;52.532;6.426;2024-01-11T06:41:44;103478.31;;;-8.01;100.00
63006;BME280;53704;52.532;6.426;2024-01-11T06:44:10;103474.81;;;-7.98;100.00
63006;BME280;53704;52.532;6.426;2024-01-11T06:46:35;103483.09;;;-8.30;100.00
63006;BME280;53704;52.532;6.426;2024-01-11T06:49:01;103494.13;;;-8.53;100.00
63006;BME280;53704;52.532;6.426;2024-01-11T06:51:27;103493.25;;;-8.53;100.00
63006;BME280;53704;52.532;6.426;2024-01-11T06:53:53;103485.41;;;-8.53;100.00
63006;BME280;53704;52.532;6.426;2024-01-11T06:56:19;103491.66;;;-8.44;100.00
63006;BME280;53704;52.532;6.426;2024-01-11T06:58:46;103487.41;;;-8.34;100.00
63006;BME280;53704;52.532;6.426;2024-01-11T07:01:12;103497.53;;;-8.57;100.00
63006;BME280;53704;52.532;6.426;2024-01-11T07:03:38;103489.06;;;-8.41;100.00
63006;BME280;53704;52.532;6.426;2024-01-11T07:06:04;103493.44;;;-8.37;100.00
63006;BME280;53704;52.532;6.426;2024-01-11T07:08:30;103483.22;;;-8.23;100.00
63006;BME280;53704;52.532;6.426;2024-01-11T07:10:56;103473.78;;;-8.11;100.00
63006;BME280;53704;52.532;6.426;2024-01-11T07:13:22;103477.38;;;-8.06;100.00
63006;BME280;53704;52.532;6.426;2024-01-11T07:15:47;103472.09;;;-8.09;100.00
63006;BME280;53704;52.532;6.426;2024-01-11T07:18:13;103469.69;;;-7.92;100.00
63006;BME280;53704;52.532;6.426;2024-01-11T07:20:39;103481.81;;;-7.97;100.00
63006;BME280;53704;52.532;6.426;2024-01-11T07:23:05;103486.31;;;-7.89;100.00
63006;BME280;53704;52.532;6.426;2024-01-11T07:25:30;103472.47;;;-7.80;100.00
63006;BME280;53704;52.532;6.426;2024-01-11T07:27:55;103488.19;;;-7.77;100.00
63006;BME280;53704;52.532;6.426;2024-01-11T07:30:21;103480.53;;;-7.63;100.00
63006;BME280;53704;52.532;6.426;2024-01-11T07:32:46;103475.31;;;-7.60;100.00
63006;BME280;53704;52.532;6.426;2024-01-11T07:35:13;103483.31;;;-7.49;100.00
63006;BME280;53704;52.532;6.426;2024-01-11T07:37:39;103475.56;;;-7.37;100.00
63006;BME280;53704;52.532;6.426;2024-01-11T07:40:06;103489.72;;;-7.21;100.00
63006;BME280;53704;52.532;6.426;2024-01-11T07:42:37;103475.69;;;-7.24;100.00
63006;BME280;53704;52.532;6.426;2024-01-11T07:45:03;103472.34;;;-7.14;100.00
63006;BME280;53704;52.532;6.426;2024-01-11T07:47:30;103471.44;;;-7.18;100.00
63006;BME280;53704;52.532;6.426;2024-01-11T07:49:55;103489.88;;;-7.04;100.00
63006;BME280;53704;52.532;6.426;2024-01-11T07:52:21;103498.66;;;-7.00;100.00
63006;BME280;53704;52.532;6.426;2024-01-11T07:54:46;103498.75;;;-6.86;100.00
63006;BME280;53704;52.532;6.426;2024-01-11T07:57:12;103511.06;;;-6.81;100.00
63006;BME280;53704;52.532;6.426;2024-01-11T07:59:37;103519.81;;;-6.76;100.00
63006;BME280;53704;52.532;6.426;2024-01-11T08:02:03;103520.78;;;-6.64;100.00
63006;BME280;53704;52.532;6.426;2024-01-11T08:04:29;103523.34;;;-6.70;100.00
63006;BME280;53704;52.532;6.426;2024-01-11T08:06:54;103522.63;;;-6.57;100.00
63006;BME280;53704;52.532;6.426;2024-01-11T08:09:19;103524.44;;;-6.47;100.00
63006;BME280;53704;52.532;6.426;2024-01-11T08:11:45;103518.38;;;-6.41;100.00
63006;BME280;53704;52.532;6.426;2024-01-11T08:14:11;103521.97;;;-6.27;100.00
63006;BME280;53704;52.532;6.426;2024-01-11T08:16:36;103509.72;;;-6.28;100.00
63006;BME280;53704;52.532;6.426;2024-01-11T08:19:03;103501.09;;;-6.11;100.00
63006;BME280;53704;52.532;6.426;2024-01-11T08:21:28;103501.13;;;-6.05;100.00
63006;BME280;53704;52.532;6.426;2024-01-11T08:23:53;103504.66;;;-6.00;100.00
63006;BME280;53704;52.532;6.426;2024-01-11T08:26:20;103500.28;;;-6.01;100.00
63006;BME280;53704;52.532;6.426;2024-01-11T08:28:47;103509.09;;;-5.82;100.00
63006;BME280;53704;52.532;6.426;2024-01-11T08:31:12;103516.94;;;-5.87;100.00
63006;BME280;53704;52.532;6.426;2024-01-11T08:33:38;103529.28;;;-5.67;100.00
63006;BME280;53704;52.532;6.426;2024-01-11T08:36:04;103526.69;;;-5.61;100.00
63006;BME280;53704;52.532;6.426;2024-01-11T08:38:30;103531.09;;;-5.51;100.00
63006;BME280;53704;52.532;6.426;2024-01-11T08:40:56;103539.84;;;-5.58;100.00
63006;BME280;53704;52.532;6.426;2024-01-11T08:43:21;103540.69;;;-5.59;100.00
63006;BME280;53704;52.532;6.426;2024-01-11T08:45:46;103546.00;;;-5.48;100.00
63006;BME280;53704;52.532;6.426;2024-01-11T08:48:13;103539.03;;;-5.38;100.00
63006;BME280;53704;52.532;6.426;2024-01-11T08:50:39;103544.28;;;-5.35;100.00
63006;BME280;53704;52.532;6.426;2024-01-11T08:53:04;103538.19;;;-5.23;100.00
63006;BME280;53704;52.532;6.426;2024-01-11T08:55:29;103539.13;;;-5.17;100.00
63006;BME280;53704;52.532;6.426;2024-01-11T08:57:55;103536.50;;;-5.14;100.00
63006;BME280;53704;52.532;6.426;2024-01-11T09:00:20;103525.13;;;-5.02;100.00
63006;BME280;53704;52.532;6.426;2024-01-11T09:02:46;103513.75;;;-5.02;100.00
63006;BME280;53704;52.532;6.426;2024-01-11T09:05:13;103509.38;;;-4.89;100.00
63006;BME280;53704;52.532;6.426;2024-01-11T09:07:39;103519.03;;;-4.87;100.00
63006;BME280;53704;52.532;6.426;2024-01-11T09:10:05;103521.66;;;-4.92;100.00
63006;BME280;53704;52.532;6.426;2024-01-11T09:12:30;103515.53;;;-4.75;100.00
63006;BME280;53704;52.532;6.426;2024-01-11T09:14:56;103533.94;;;-4.77;100.00
63006;BME280;53704;52.532;6.426;2024-01-11T09:17:21;103535.72;;;-4.68;100.00
63006;BME280;53704;52.532;6.426;2024-01-11T09:19:47;103531.31;;;-4.60;100.00
63006;BME280;53704;52.532;6.426;2024-01-11T09:22:12;103523.44;;;-4.57;100.00
63006;BME280;53704;52.532;6.426;2024-01-11T09:24:37;103526.94;;;-4.36;100.00
63006;BME280;53704;52.532;6.426;2024-01-11T09:27:03;103522.53;;;-4.37;100.00
63006;BME280;53704;52.532;6.426;2024-01-11T09:29:29;103515.50;;;-4.26;100.00
63006;BME280;53704;52.532;6.426;2024-01-11T09:31:55;103520.78;;;-4.21;100.00
63006;BME280;53704;52.532;6.426;2024-01-11T09:34:20;103530.44;;;-4.19;100.00
63006;BME280;53704;52.532;6.426;2024-01-11T09:36:45;103532.16;;;-4.11;100.00
63006;BME280;53704;52.532;6.426;2024-01-11T09:39:11;103543.56;;;-4.11;100.00
63006;BME280;53704;52.532;6.426;2024-01-11T09:41:41;103549.69;;;-4.04;100.00
63006;BME280;53704;52.532;6.426;2024-01-11T09:44:08;103540.03;;;-3.91;100.00
63006;BME280;53704;52.532;6.426;2024-01-11T09:46:34;103541.78;;;-3.96;100.00
63006;BME280;53704;52.532;6.426;2024-01-11T09:49:01;103547.03;;;-3.83;100.00
63006;BME280;53704;52.532;6.426;2024-01-11T09:51:29;103540.00;;;-3.85;100.00
63006;BME280;53704;52.532;6.426;2024-01-11T09:53:55;103547.91;;;-3.80;100.00
63006;BME280;53704;52.532;6.426;2024-01-11T09:56:21;103545.25;;;-3.77;100.00
63006;BME280;53704;52.532;6.426;2024-01-11T09:58:49;103557.50;;;-3.67;100.00
63006;BME280;53704;52.532;6.426;2024-01-11T10:01:15;103565.38;;;-3.64;100.00
63006;BME280;53704;52.532;6.426;2024-01-11T10:03:41;103557.47;;;-3.56;100.00
63006;BME280;53704;52.532;6.426;2024-01-11T10:06:07;103559.19;;;-3.46;100.00
63006;BME280;53704;52.532;6.426;2024-01-11T10:08:32;103568.81;;;-3.36;100.00
63006;BME280;53704;52.532;6.426;2024-01-11T10:10:57;103561.88;;;-3.65;100.00
63006;BME280;53704;52.532;6.426;2024-01-11T10:13:30;103565.34;;;-3.46;100.00
63006;BME280;53704;52.532;6.426;2024-01-11T10:16:09;103574.88;;;-3.21;100.00
63006;BME280;53704;52.532;6.426;2024-01-11T10:18:36;103574.88;;;-3.21;100.00
63006;BME280;53704;52.532;6.426;2024-01-11T10:21:02;103567.94;;;-3.33;100.00
63006;BME280;53704;52.532;6.426;2024-01-11T10:23:28;103568.69;;;-3.08;100.00
63006;BME280;53704;52.532;6.426;2024-01-11T10:25:56;103561.63;;;-3.06;100.00
63006;BME280;53704;52.532;6.426;2024-01-11T10:28:23;103558.94;;;-2.94;100.00
63006;BME280;53704;52.532;6.426;2024-01-11T10:30:50;103562.47;;;-2.98;100.00
63006;BME280;53704;52.532;6.426;2024-01-11T10:33:19;103563.44;;;-3.14;100.00
63006;BME280;53704;52.532;6.426;2024-01-11T10:35:46;103560.66;;;-2.93;100.00
63006;BME280;53704;52.532;6.426;2024-01-11T10:38:11;103553.66;;;-2.91;100.00
63006;BME280;53704;52.532;6.426;2024-01-11T10:40:37;103542.19;;;-2.88;100.00
63006;BME280;53704;52.532;6.426;2024-01-11T10:43:05;103548.25;;;-2.74;100.00
63006;BME280;53704;52.532;6.426;2024-01-11T10:45:36;103542.09;;;-2.74;100.00
63006;BME280;53704;52.532;6.426;2024-01-11T10:48:07;103536.94;;;-2.89;100.00
63006;BME280;53704;52.532;6.426;2024-01-11T10:50:42;103539.38;;;-2.62;100.00
63006;BME280;53704;52.532;6.426;2024-01-11T10:53:36;103532.31;;;-2.58;100.00
63006;BME280;53704;52.532;6.426;2024-01-11T10:56:06;103540.09;;;-2.43;100.00
63006;BME280;53704;52.532;6.426;2024-01-11T10:58:34;103543.75;;;-2.55;100.00
63006;BME280;53704;52.532;6.426;2024-01-11T11:01:01;103542.88;;;-2.61;100.00
63006;BME280;53704;52.532;6.426;2024-01-11T11:03:27;103542.72;;;-2.38;100.00
63006;BME280;53704;52.532;6.426;2024-01-11T11:05:54;103552.28;;;-2.28;100.00
63006;BME280;53704;52.532;6.426;2024-01-11T11:08:23;103545.34;;;-2.38;100.00
63006;BME280;53704;52.532;6.426;2024-01-11T11:10:59;103538.16;;;-2.22;100.00
63006;BME280;53704;52.532;6.426;2024-01-11T11:13:26;103529.44;;;-2.27;100.00
63006;BME280;53704;52.532;6.426;2024-01-11T11:15:52;103526.81;;;-2.32;100.00
63006;BME280;53704;52.532;6.426;2024-01-11T11:18:18;103518.81;;;-2.23;100.00
63006;BME280;53704;52.532;6.426;2024-01-11T11:20:45;103509.06;;;-2.14;100.00
63006;BME280;53704;52.532;6.426;2024-01-11T11:23:12;103507.31;;;-2.17;100.00
63006;BME280;53704;52.532;6.426;2024-01-11T11:25:44;103506.47;;;-2.19;100.00
63006;BME280;53704;52.532;6.426;2024-01-11T11:28:14;103514.34;;;-2.14;100.00
63006;BME280;53704;52.532;6.426;2024-01-11T11:30:41;103515.03;;;-1.97;100.00
63006;BME280;53704;52.532;6.426;2024-01-11T11:33:11;103498.34;;;-1.99;100.00
63006;BME280;53704;52.532;6.426;2024-01-11T11:35:40;103493.91;;;-1.97;100.00
63006;BME280;53704;52.532;6.426;2024-01-11T11:38:06;103499.94;;;-1.84;100.00
63006;BME280;53704;52.532;6.426;2024-01-11T11:40:40;103495.53;;;-1.87;100.00
63006;BME280;53704;52.532;6.426;2024-01-11T11:43:07;103501.69;;;-1.82;100.00
63006;BME280;53704;52.532;6.426;2024-01-11T11:45:33;103497.31;;;-1.87;100.00
63006;BME280;53704;52.532;6.426;2024-01-11T11:47:59;103497.13;;;-1.69;100.00
63006;BME280;53704;52.532;6.426;2024-01-11T11:50:25;103499.69;;;-1.62;100.00
63006;BME280;53704;52.532;6.426;2024-01-11T11:52:57;103504.06;;;-1.63;100.00
63006;BME280;53704;52.532;6.426;2024-01-11T11:55:23;103494.38;;;-1.61;100.00
63006;BME280;53704;52.532;6.426;2024-01-11T11:57:53;103491.03;;;-1.74;100.00
63006;BME280;53704;52.532;6.426;2024-01-11T12:00:20;103488.50;;;-1.83;100.00
63006;BME280;53704;52.532;6.426;2024-01-11T12:02:47;103485.50;;;-1.57;100.00
63006;BME280;53704;52.532;6.426;2024-01-11T12:05:13;103492.78;;;-1.74;100.00
63006;BME280;53704;52.532;6.426;2024-01-11T12:07:38;103489.66;;;-1.36;100.00
63006;BME280;53704;52.532;6.426;2024-01-11T12:10:05;103479.84;;;-1.28;100.00
63006;BME280;53704;52.532;6.426;2024-01-11T12:12:32;103483.34;;;-1.27;100.00
63006;BME280;53704;52.532;6.426;2024-01-11T12:14:59;103477.16;;;-1.24;100.00
63006;BME280;53704;52.532;6.426;2024-01-11T12:17:24;103466.59;;;-1.24;100.00
63006;BME280;53704;52.532;6.426;2024-01-11T12:19:51;103461.19;;;-1.17;100.00
63006;BME280;53704;52.532;6.426;2024-01-11T12:22:17;103459.44;;;-1.19;100.00
63006;BME280;53704;52.532;6.426;2024-01-11T12:24:42;103459.31;;;-1.10;100.00
63006;BME280;53704;52.532;6.426;2024-01-11T12:27:08;103455.97;;;-1.21;100.00
63006;BME280;53704;52.532;6.426;2024-01-11T12:29:33;103454.22;;;-1.22;100.00
63006;BME280;53704;52.532;6.426;2024-01-11T12:31:59;103443.34;;;-1.02;100.00
63006;BME280;53704;52.532;6.426;2024-01-11T12:34:25;103449.59;;;-1.10;100.00